sensor_id;sensor_type;location;lat;lon;timestamp;temperature;humidity
7704;DHT22;3894;49.700;10.770;2024-03-29T00:00:39;5.80;99.90
7704;DHT22;3894;49.700;10.770;2024-03-29T00:03:06;5.80;99.90
7704;DHT22;3894;49.700;10.770;2024-03-29T00:05:35;5.80;99.90
7704;DHT22;3894;49.700;10.770;2024-03-29T00:08:01;5.70;99.90
7704;DHT22;3894;49.700;10.770;2024-03-29T00:10:27;5.70;99.90
7704;DHT22;3894;49.700;10.770;2024-03-29T00:12:54;5.70;99.90
7704;DHT22;3894;49.700;10.770;2024-03-29T00:15:19;5.70;99.90
7704;DHT22;3894;49.700;10.770;2024-03-29T00:17:45;5.70;99.90
7704;DHT22;3894;49.700;10.770;2024-03-29T00:20:11;5.60;99.90
7704;DHT22;3894;49.700;10.770;2024-03-29T00:22:37;5.60;99.90
7704;DHT22;3894;49.700;10.770;2024-03-29T00:25:03;5.60;99.90
7704;DHT22;3894;49.700;10.770;2024-03-29T00:27:29;5.60;99.90
7704;DHT22;3894;49.700;10.770;2024-03-29T00:29:55;5.60;99.90
7704;DHT22;3894;49.700;10.770;2024-03-29T00:32:21;5.60;99.90
7704;DHT22;3894;49.700;10.770;2024-03-29T00:34:50;5.60;99.90
7704;DHT22;3894;49.700;10.770;2024-03-29T00:37:16;5.60;99.90
7704;DHT22;3894;49.700;10.770;2024-03-29T00:39:42;5.60;99.90
7704;DHT22;3894;49.700;10.770;2024-03-29T00:42:08;5.60;99.90
7704;DHT22;3894;49.700;10.770;2024-03-29T00:44:41;5.50;99.90
7704;DHT22;3894;49.700;10.770;2024-03-29T00:47:07;5.50;99.90
7704;DHT22;3894;49.700;10.770;2024-03-29T00:49:32;5.50;99.90
7704;DHT22;3894;49.700;10.770;2024-03-29T00:51:59;5.50;99.90
7704;DHT22;3894;49.700;10.770;2024-03-29T00:54:25;5.50;99.90
7704;DHT22;3894;49.700;10.770;2024-03-29T00:56:50;5.40;99.90
7704;DHT22;3894;49.700;10.770;2024-03-29T00:59:16;5.40;99.90
7704;DHT22;3894;49.700;10.770;2024-03-29T01:01:42;5.40;99.90
7704;DHT22;3894;49.700;10.770;2024-03-29T01:04:08;5.40;99.90
7704;DHT22;3894;49.700;10.770;2024-03-29T01:06:34;5.40;99.90
7704;DHT22;3894;49.700;10.770;2024-03-29T01:09:02;5.40;99.90
7704;DHT22;3894;49.700;10.770;2024-03-29T01:11:29;5.40;99.90
7704;DHT22;3894;49.700;10.770;2024-03-29T01:13:54;5.30;99.90
7704;DHT22;3894;49.700;10.770;2024-03-29T01:16:20;5.40;99.90
7704;DHT22;3894;49.700;10.770;2024-03-29T01:18:46;5.40;99.90
7704;DHT22;3894;49.700;10.770;2024-03-29T01:21:12;5.40;99.90
7704;DHT22;3894;49.700;10.770;2024-03-29T01:23:38;5.40;99.90
7704;DHT22;3894;49.700;10.770;2024-03-29T01:26:05;5.30;99.90
7704;DHT22;3894;49.700;10.770;2024-03-29T01:28:31;5.30;99.90
7704;DHT22;3894;49.700;10.770;2024-03-29T01:30:56;5.30;99.90
7704;DHT22;3894;49.700;10.770;2024-03-29T01:33:24;5.30;99.90
7704;DHT22;3894;49.700;10.770;2024-03-29T01:35:49;5.40;99.90
7704;DHT22;3894;49.700;10.770;2024-03-29T01:38:15;5.40;99.90
7704;DHT22;3894;49.700;10.770;2024-03-29T01:40:40;5.40;99.90
7704;DHT22;3894;49.700;10.770;2024-03-29T01:43:07;5.40;99.90
7704;DHT22;3894;49.700;10.770;2024-03-29T01:45:38;5.40;99.90
7704;DHT22;3894;49.700;10.770;2024-03-29T01:48:05;5.40;99.90
7704;DHT22;3894;49.700;10.770;2024-03-29T01:50:32;5.40;99.90
7704;DHT22;3894;49.700;10.770;2024-03-29T01:52:58;5.40;99.90
7704;DHT22;3894;49.700;10.770;2024-03-29T01:55:24;5.50;99.90
7704;DHT22;3894;49.700;10.770;2024-03-29T01:57:50;5.40;99.90
7704;DHT22;3894;49.700;10.770;2024-03-29T02:00:17;5.40;99.90
7704;DHT22;3894;49.700;10.770;2024-03-29T02:02:43;5.40;99.90
7704;DHT22;3894;49.700;10.770;2024-03-29T02:05:09;5.40;99.90
7704;DHT22;3894;49.700;10.770;2024-03-29T02:07:35;5.40;99.90
7704;DHT22;3894;49.700;10.770;2024-03-29T02:10:02;5.40;99.90
7704;DHT22;3894;49.700;10.770;2024-03-29T02:12:28;5.40;99.90
7704;DHT22;3894;49.700;10.770;2024-03-29T02:14:54;5.40;99.90
7704;DHT22;3894;49.700;10.770;2024-03-29T02:17:19;5.50;99.90
7704;DHT22;3894;49.700;10.770;2024-03-29T02:19:45;5.50;99.90
7704;DHT22;3894;49.700;10.770;2024-03-29T02:22:15;5.50;99.90
7704;DHT22;3894;49.700;10.770;2024-03-29T02:24:41;5.50;99.90
7704;DHT22;3894;49.700;10.770;2024-03-29T02:27:06;5.50;99.90
7704;DHT22;3894;49.700;10.770;2024-03-29T02:29:32;5.50;99.90
7704;DHT22;3894;49.700;10.770;2024-03-29T02:31:58;5.50;99.90
7704;DHT22;3894;49.700;10.770;2024-03-29T02:34:23;5.50;99.90
7704;DHT22;3894;49.700;10.770;2024-03-29T02:36:49;5.50;99.90
7704;DHT22;3894;49.700;10.770;2024-03-29T02:39:15;5.50;99.90
7704;DHT22;3894;49.700;10.770;2024-03-29T02:41:40;5.50;99.90
7704;DHT22;3894;49.700;10.770;2024-03-29T02:44:06;5.50;99.90
7704;DHT22;3894;49.700;10.770;2024-03-29T02:46:32;5.50;99.90
7704;DHT22;3894;49.700;10.770;2024-03-29T02:48:57;5.50;99.90
7704;DHT22;3894;49.700;10.770;2024-03-29T02:51:23;5.50;99.90
7704;DHT22;3894;49.700;10.770;2024-03-29T02:53:49;5.50;99.90
7704;DHT22;3894;49.700;10.770;2024-03-29T02:56:14;5.60;99.90
7704;DHT22;3894;49.700;10.770;2024-03-29T02:58:44;5.60;99.90
7704;DHT22;3894;49.700;10.770;2024-03-29T03:01:09;5.60;99.90
7704;DHT22;3894;49.700;10.770;2024-03-29T03:03:37;5.60;99.90
7704;DHT22;3894;49.700;10.770;2024-03-29T03:06:02;5.60;99.90
7704;DHT22;3894;49.700;10.770;2024-03-29T03:08:29;5.60;99.90
7704;DHT22;3894;49.700;10.770;2024-03-29T03:11:13;5.70;99.90
7704;DHT22;3894;49.700;10.770;2024-03-29T03:13:39;5.70;99.90
7704;DHT22;3894;49.700;10.770;2024-03-29T03:16:04;5.70;99.90
7704;DHT22;3894;49.700;10.770;2024-03-29T03:18:30;5.70;99.90
7704;DHT22;3894;49.700;10.770;2024-03-29T03:20:56;5.70;99.90
7704;DHT22;3894;49.700;10.770;2024-03-29T03:23:25;5.70;99.90
7704;DHT22;3894;49.700;10.770;2024-03-29T03:25:55;5.70;99.90
7704;DHT22;3894;49.700;10.770;2024-03-29T03:28:21;5.70;99.90
7704;DHT22;3894;49.700;10.770;2024-03-29T03:30:50;5.80;99.90
7704;DHT22;3894;49.700;10.770;2024-03-29T03:33:16;5.80;99.90
7704;DHT22;3894;49.700;10.770;2024-03-29T03:35:42;5.80;99.90
7704;DHT22;3894;49.700;10.770;2024-03-29T03:38:08;5.80;99.90
7704;DHT22;3894;49.700;10.770;2024-03-29T03:40:34;5.80;99.90
7704;DHT22;3894;49.700;10.770;2024-03-29T03:43:04;5.80;99.90
7704;DHT22;3894;49.700;10.770;2024-03-29T03:45:38;5.90;99.90
7704;DHT22;3894;49.700;10.770;2024-03-29T03:48:05;5.90;99.90
7704;DHT22;3894;49.700;10.770;2024-03-29T03:50:31;5.90;99.90
7704;DHT22;3894;49.700;10.770;2024-03-29T03:52:57;5.90;99.90
7704;DHT22;3894;49.700;10.770;2024-03-29T03:55:22;6.00;99.90
7704;DHT22;3894;49.700;10.770;2024-03-29T03:57:48;6.00;99.90
7704;DHT22;3894;49.700;10.770;2024-03-29T04:00:14;6.00;99.90
7704;DHT22;3894;49.700;10.770;2024-03-29T04:02:39;6.00;99.90
7704;DHT22;3894;49.700;10.770;2024-03-29T04:05:06;6.00;99.90
7704;DHT22;3894;49.700;10.770;2024-03-29T04:07:31;6.00;99.90
7704;DHT22;3894;49.700;10.770;2024-03-29T04:09:57;6.00;99.90
7704;DHT22;3894;49.700;10.770;2024-03-29T04:12:22;6.00;99.90
7704;DHT22;3894;49.700;10.770;2024-03-29T04:14:48;6.10;99.90
7704;DHT22;3894;49.700;10.770;2024-03-29T04:17:14;6.10;99.90
7704;DHT22;3894;49.700;10.770;2024-03-29T04:19:39;6.10;99.90
7704;DHT22;3894;49.700;10.770;2024-03-29T04:22:05;6.10;99.90
7704;DHT22;3894;49.700;10.770;2024-03-29T04:24:31;6.10;99.90
7704;DHT22;3894;49.700;10.770;2024-03-29T04:26:57;6.10;99.90
7704;DHT22;3894;49.700;10.770;2024-03-29T04:29:22;6.10;99.90
7704;DHT22;3894;49.700;10.770;2024-03-29T04:31:48;6.10;99.90
7704;DHT22;3894;49.700;10.770;2024-03-29T04:34:13;6.20;99.90
7704;DHT22;3894;49.700;10.770;2024-03-29T04:36:39;6.20;99.90
7704;DHT22;3894;49.700;10.770;2024-03-29T04:39:05;6.20;99.90
7704;DHT22;3894;49.700;10.770;2024-03-29T04:41:30;6.20;99.90
7704;DHT22;3894;49.700;10.770;2024-03-29T04:44:00;6.20;99.90
7704;DHT22;3894;49.700;10.770;2024-03-29T04:46:25;6.20;99.90
7704;DHT22;3894;49.700;10.770;2024-03-29T04:48:51;6.30;99.90
7704;DHT22;3894;49.700;10.770;2024-03-29T04:51:16;6.30;99.90
7704;DHT22;3894;49.700;10.770;2024-03-29T04:53:42;6.30;99.90
7704;DHT22;3894;49.700;10.770;2024-03-29T04:56:08;6.30;99.90
7704;DHT22;3894;49.700;10.770;2024-03-29T04:58:33;6.30;99.90
7704;DHT22;3894;49.700;10.770;2024-03-29T05:00:59;6.30;99.90
7704;DHT22;3894;49.700;10.770;2024-03-29T05:03:25;6.30;99.90
7704;DHT22;3894;49.700;10.770;2024-03-29T05:05:51;6.30;99.90
7704;DHT22;3894;49.700;10.770;2024-03-29T05:08:17;6.30;99.90
7704;DHT22;3894;49.700;10.770;2024-03-29T05:10:46;6.30;99.90
7704;DHT22;3894;49.700;10.770;2024-03-29T05:13:12;6.30;99.90
7704;DHT22;3894;49.700;10.770;2024-03-29T05:15:38;6.30;99.90
7704;DHT22;3894;49.700;10.770;2024-03-29T05:18:04;6.30;99.90
7704;DHT22;3894;49.700;10.770;2024-03-29T05:20:30;6.40;99.90
7704;DHT22;3894;49.700;10.770;2024-03-29T05:22:56;6.40;99.90
7704;DHT22;3894;49.700;10.770;2024-03-29T05:25:21;6.40;99.90
7704;DHT22;3894;49.700;10.770;2024-03-29T05:27:49;6.40;99.90
7704;DHT22;3894;49.700;10.770;2024-03-29T05:30:14;6.50;99.90
7704;DHT22;3894;49.700;10.770;2024-03-29T05:32:40;6.60;99.90
7704;DHT22;3894;49.700;10.770;2024-03-29T05:35:06;6.60;99.90
7704;DHT22;3894;49.700;10.770;2024-03-29T05:37:31;6.60;99.90
7704;DHT22;3894;49.700;10.770;2024-03-29T05:39:57;6.60;99.90
7704;DHT22;3894;49.700;10.770;2024-03-29T05:42:26;6.60;99.90
7704;DHT22;3894;49.700;10.770;2024-03-29T05:44:52;6.60;99.90
7704;DHT22;3894;49.700;10.770;2024-03-29T05:47:17;6.60;99.90
7704;DHT22;3894;49.700;10.770;2024-03-29T05:49:43;6.60;99.90
7704;DHT22;3894;49.700;10.770;2024-03-29T05:52:09;6.60;99.90
7704;DHT22;3894;49.700;10.770;2024-03-29T05:54:34;6.60;99.90
7704;DHT22;3894;49.700;10.770;2024-03-29T05:57:00;6.60;99.90
7704;DHT22;3894;49.700;10.770;2024-03-29T05:59:25;6.60;99.90
7704;DHT22;3894;49.700;10.770;2024-03-29T06:01:51;6.60;99.90
7704;DHT22;3894;49.700;10.770;2024-03-29T06:04:16;6.60;99.90
7704;DHT22;3894;49.700;10.770;2024-03-29T06:06:44;6.60;99.90
7704;DHT22;3894;49.700;10.770;2024-03-29T06:09:10;6.60;99.90
7704;DHT22;3894;49.700;10.770;2024-03-29T06:11:35;6.60;99.90
7704;DHT22;3894;49.700;10.770;2024-03-29T06:14:01;6.60;99.90
7704;DHT22;3894;49.700;10.770;2024-03-29T06:16:29;6.60;99.90
7704;DHT22;3894;49.700;10.770;2024-03-29T06:19:15;6.70;99.90
7704;DHT22;3894;49.700;10.770;2024-03-29T06:21:41;6.70;99.90
7704;DHT22;3894;49.700;10.770;2024-03-29T06:24:09;6.70;99.90
7704;DHT22;3894;49.700;10.770;2024-03-29T06:26:38;6.70;99.90
7704;DHT22;3894;49.700;10.770;2024-03-29T06:29:03;6.80;99.90
7704;DHT22;3894;49.700;10.770;2024-03-29T06:31:29;6.80;99.90
7704;DHT22;3894;49.700;10.770;2024-03-29T06:33:56;6.80;99.90
7704;DHT22;3894;49.700;10.770;2024-03-29T06:36:23;6.80;99.90
7704;DHT22;3894;49.700;10.770;2024-03-29T06:38:48;6.80;99.90
7704;DHT22;3894;49.700;10.770;2024-03-29T06:41:14;6.90;99.90
7704;DHT22;3894;49.700;10.770;2024-03-29T06:43:43;7.00;99.90
7704;DHT22;3894;49.700;10.770;2024-03-29T06:46:12;7.00;99.90
7704;DHT22;3894;49.700;10.770;2024-03-29T06:48:38;7.10;99.90
7704;DHT22;3894;49.700;10.770;2024-03-29T06:51:03;7.10;99.90
7704;DHT22;3894;49.700;10.770;2024-03-29T06:53:29;7.10;99.90
7704;DHT22;3894;49.700;10.770;2024-03-29T06:55:56;7.10;99.90
7704;DHT22;3894;49.700;10.770;2024-03-29T06:58:23;7.10;99.90
7704;DHT22;3894;49.700;10.770;2024-03-29T07:00:48;7.10;99.90
7704;DHT22;3894;49.700;10.770;2024-03-29T07:03:15;7.10;99.90
7704;DHT22;3894;49.700;10.770;2024-03-29T07:05:42;7.10;99.90
7704;DHT22;3894;49.700;10.770;2024-03-29T07:08:07;7.10;99.90
7704;DHT22;3894;49.700;10.770;2024-03-29T07:10:33;7.20;99.90
7704;DHT22;3894;49.700;10.770;2024-03-29T07:12:58;7.20;99.90
7704;DHT22;3894;49.700;10.770;2024-03-29T07:15:24;7.20;99.90
7704;DHT22;3894;49.700;10.770;2024-03-29T07:17:49;7.30;99.90
7704;DHT22;3894;49.700;10.770;2024-03-29T07:20:16;7.30;99.90
7704;DHT22;3894;49.700;10.770;2024-03-29T07:22:42;7.40;99.90
7704;DHT22;3894;49.700;10.770;2024-03-29T07:25:08;7.50;99.90
7704;DHT22;3894;49.700;10.770;2024-03-29T07:27:34;7.60;99.90
7704;DHT22;3894;49.700;10.770;2024-03-29T07:30:02;7.60;99.90
7704;DHT22;3894;49.700;10.770;2024-03-29T07:32:29;7.70;99.90
7704;DHT22;3894;49.700;10.770;2024-03-29T07:34:55;7.80;99.90
7704;DHT22;3894;49.700;10.770;2024-03-29T07:37:23;7.80;99.90
7704;DHT22;3894;49.700;10.770;2024-03-29T07:39:49;7.90;99.90
7704;DHT22;3894;49.700;10.770;2024-03-29T07:42:15;8.00;99.90
7704;DHT22;3894;49.700;10.770;2024-03-29T07:44:41;8.20;99.90
7704;DHT22;3894;49.700;10.770;2024-03-29T07:47:07;8.30;99.90
7704;DHT22;3894;49.700;10.770;2024-03-29T07:49:32;8.40;99.90
7704;DHT22;3894;49.700;10.770;2024-03-29T07:51:58;8.50;99.90
7704;DHT22;3894;49.700;10.770;2024-03-29T07:54:25;8.60;99.90
7704;DHT22;3894;49.700;10.770;2024-03-29T07:56:50;8.70;99.90
7704;DHT22;3894;49.700;10.770;2024-03-29T07:59:16;8.80;99.90
7704;DHT22;3894;49.700;10.770;2024-03-29T08:01:44;8.90;99.90
7704;DHT22;3894;49.700;10.770;2024-03-29T08:04:10;8.90;99.90
7704;DHT22;3894;49.700;10.770;2024-03-29T08:06:35;9.00;99.90
7704;DHT22;3894;49.700;10.770;2024-03-29T08:09:02;9.10;99.90
7704;DHT22;3894;49.700;10.770;2024-03-29T08:11:27;9.10;99.90
7704;DHT22;3894;49.700;10.770;2024-03-29T08:13:53;9.10;99.90
7704;DHT22;3894;49.700;10.770;2024-03-29T08:16:18;9.20;99.90
7704;DHT22;3894;49.700;10.770;2024-03-29T08:18:46;9.20;99.90
7704;DHT22;3894;49.700;10.770;2024-03-29T08:21:13;9.30;99.90
7704;DHT22;3894;49.700;10.770;2024-03-29T08:23:39;9.40;99.90
7704;DHT22;3894;49.700;10.770;2024-03-29T08:26:05;9.40;99.90
7704;DHT22;3894;49.700;10.770;2024-03-29T08:28:31;9.30;99.90
7704;DHT22;3894;49.700;10.770;2024-03-29T08:31:01;9.30;99.90
7704;DHT22;3894;49.700;10.770;2024-03-29T08:33:28;9.30;99.90
7704;DHT22;3894;49.700;10.770;2024-03-29T08:35:53;9.30;99.90
7704;DHT22;3894;49.700;10.770;2024-03-29T08:38:19;9.30;99.90
7704;DHT22;3894;49.700;10.770;2024-03-29T08:40:44;9.30;99.90
7704;DHT22;3894;49.700;10.770;2024-03-29T08:43:14;9.30;99.90
7704;DHT22;3894;49.700;10.770;2024-03-29T08:45:40;9.30;99.90
7704;DHT22;3894;49.700;10.770;2024-03-29T08:48:07;9.30;99.90
7704;DHT22;3894;49.700;10.770;2024-03-29T08:50:35;9.30;99.90
7704;DHT22;3894;49.700;10.770;2024-03-29T08:53:05;9.30;99.90
7704;DHT22;3894;49.700;10.770;2024-03-29T08:55:31;9.30;99.90
7704;DHT22;3894;49.700;10.770;2024-03-29T08:57:58;9.30;99.90
7704;DHT22;3894;49.700;10.770;2024-03-29T09:00:27;9.30;99.90
7704;DHT22;3894;49.700;10.770;2024-03-29T09:02:53;9.30;99.90
7704;DHT22;3894;49.700;10.770;2024-03-29T09:05:20;9.30;99.90
7704;DHT22;3894;49.700;10.770;2024-03-29T09:07:45;9.30;99.90
7704;DHT22;3894;49.700;10.770;2024-03-29T09:10:12;9.40;99.90
7704;DHT22;3894;49.700;10.770;2024-03-29T09:12:38;9.30;99.90
7704;DHT22;3894;49.700;10.770;2024-03-29T09:15:05;9.30;99.90
7704;DHT22;3894;49.700;10.770;2024-03-29T09:17:34;9.30;99.90
7704;DHT22;3894;49.700;10.770;2024-03-29T09:20:01;9.20;99.90
7704;DHT22;3894;49.700;10.770;2024-03-29T09:22:31;9.20;99.90
7704;DHT22;3894;49.700;10.770;2024-03-29T09:24:56;9.10;99.90
7704;DHT22;3894;49.700;10.770;2024-03-29T09:27:22;9.10;99.90
7704;DHT22;3894;49.700;10.770;2024-03-29T09:29:50;9.00;99.90
7704;DHT22;3894;49.700;10.770;2024-03-29T09:32:15;9.00;99.90
7704;DHT22;3894;49.700;10.770;2024-03-29T09:34:43;9.00;99.90
7704;DHT22;3894;49.700;10.770;2024-03-29T09:37:09;8.90;99.90
7704;DHT22;3894;49.700;10.770;2024-03-29T09:39:35;8.80;99.90
7704;DHT22;3894;49.700;10.770;2024-03-29T09:42:03;8.80;99.90
7704;DHT22;3894;49.700;10.770;2024-03-29T09:44:33;8.70;99.90
7704;DHT22;3894;49.700;10.770;2024-03-29T09:47:03;8.70;99.90
7704;DHT22;3894;49.700;10.770;2024-03-29T09:49:33;8.60;99.90
7704;DHT22;3894;49.700;10.770;2024-03-29T09:52:00;8.60;99.90
7704;DHT22;3894;49.700;10.770;2024-03-29T09:54:31;8.60;99.90
7704;DHT22;3894;49.700;10.770;2024-03-29T09:56:58;8.60;99.90
7704;DHT22;3894;49.700;10.770;2024-03-29T09:59:24;8.60;99.90
7704;DHT22;3894;49.700;10.770;2024-03-29T10:01:54;8.60;99.90
7704;DHT22;3894;49.700;10.770;2024-03-29T10:04:21;8.60;99.90
7704;DHT22;3894;49.700;10.770;2024-03-29T10:06:48;8.60;99.90
7704;DHT22;3894;49.700;10.770;2024-03-29T10:09:17;8.60;99.90
7704;DHT22;3894;49.700;10.770;2024-03-29T10:11:43;8.70;99.90
7704;DHT22;3894;49.700;10.770;2024-03-29T10:14:09;8.80;99.90
7704;DHT22;3894;49.700;10.770;2024-03-29T10:16:35;8.80;99.90
7704;DHT22;3894;49.700;10.770;2024-03-29T10:19:00;8.80;99.90
7704;DHT22;3894;49.700;10.770;2024-03-29T10:21:27;8.90;99.90
7704;DHT22;3894;49.700;10.770;2024-03-29T10:23:52;8.90;99.90
7704;DHT22;3894;49.700;10.770;2024-03-29T10:26:19;9.00;99.90
7704;DHT22;3894;49.700;10.770;2024-03-29T10:28:46;9.10;99.90
7704;DHT22;3894;49.700;10.770;2024-03-29T10:31:15;9.10;99.90
7704;DHT22;3894;49.700;10.770;2024-03-29T10:33:44;9.20;99.90
7704;DHT22;3894;49.700;10.770;2024-03-29T10:36:11;9.30;99.90
7704;DHT22;3894;49.700;10.770;2024-03-29T10:38:40;9.30;99.90
7704;DHT22;3894;49.700;10.770;2024-03-29T10:41:07;9.40;99.90
7704;DHT22;3894;49.700;10.770;2024-03-29T10:43:34;9.40;99.90
7704;DHT22;3894;49.700;10.770;2024-03-29T10:46:01;9.50;99.90
7704;DHT22;3894;49.700;10.770;2024-03-29T10:48:27;9.50;99.90
7704;DHT22;3894;49.700;10.770;2024-03-29T10:50:54;9.50;99.90
7704;DHT22;3894;49.700;10.770;2024-03-29T10:53:26;9.60;99.90
7704;DHT22;3894;49.700;10.770;2024-03-29T10:55:57;9.60;99.90
7704;DHT22;3894;49.700;10.770;2024-03-29T10:58:28;9.60;99.90
7704;DHT22;3894;49.700;10.770;2024-03-29T11:00:57;9.50;99.90
7704;DHT22;3894;49.700;10.770;2024-03-29T11:03:38;9.50;99.90
7704;DHT22;3894;49.700;10.770;2024-03-29T11:06:06;9.40;99.90
7704;DHT22;3894;49.700;10.770;2024-03-29T11:08:38;9.40;99.90
7704;DHT22;3894;49.700;10.770;2024-03-29T11:11:12;9.40;99.90
7704;DHT22;3894;49.700;10.770;2024-03-29T11:14:11;9.40;99.90
7704;DHT22;3894;49.700;10.770;2024-03-29T11:16:41;9.50;99.90
7704;DHT22;3894;49.700;10.770;2024-03-29T11:19:12;9.60;99.90
7704;DHT22;3894;49.700;10.770;2024-03-29T11:21:39;9.60;99.90
7704;DHT22;3894;49.700;10.770;2024-03-29T11:24:08;9.60;99.90
7704;DHT22;3894;49.700;10.770;2024-03-29T11:26:34;9.50;99.90
7704;DHT22;3894;49.700;10.770;2024-03-29T11:29:00;9.50;99.90
7704;DHT22;3894;49.700;10.770;2024-03-29T11:31:28;9.50;99.90
7704;DHT22;3894;49.700;10.770;2024-03-29T11:33:57;9.50;99.90
7704;DHT22;3894;49.700;10.770;2024-03-29T11:36:29;9.50;99.90
7704;DHT22;3894;49.700;10.770;2024-03-29T11:38:57;9.60;99.90
7704;DHT22;3894;49.700;10.770;2024-03-29T11:41:24;9.70;99.90
7704;DHT22;3894;49.700;10.770;2024-03-29T11:43:53;9.80;99.90
7704;DHT22;3894;49.700;10.770;2024-03-29T11:46:19;9.90;99.90
7704;DHT22;3894;49.700;10.770;2024-03-29T11:48:45;9.90;99.90
7704;DHT22;3894;49.700;10.770;2024-03-29T11:51:22;10.00;99.90
7704;DHT22;3894;49.700;10.770;2024-03-29T11:53:50;9.90;99.90
7704;DHT22;3894;49.700;10.770;2024-03-29T11:56:17;10.00;99.90
7704;DHT22;3894;49.700;10.770;2024-03-29T11:58:43;9.90;99.90
7704;DHT22;3894;49.700;10.770;2024-03-29T12:01:09;9.90;99.90
7704;DHT22;3894;49.700;10.770;2024-03-29T12:03:38;9.90;99.90
7704;DHT22;3894;49.700;10.770;2024-03-29T12:06:04;9.90;99.90
7704;DHT22;3894;49.700;10.770;2024-03-29T12:08:33;9.90;99.90
7704;DHT22;3894;49.700;10.770;2024-03-29T12:11:01;9.90;99.90
7704;DHT22;3894;49.700;10.770;2024-03-29T12:13:28;9.90;99.90
7704;DHT22;3894;49.700;10.770;2024-03-29T12:15:54;9.90;99.90
7704;DHT22;3894;49.700;10.770;2024-03-29T12:18:20;9.90;99.90
7704;DHT22;3894;49.700;10.770;2024-03-29T12:20:48;10.00;99.90
7704;DHT22;3894;49.700;10.770;2024-03-29T12:23:18;10.20;99.90
7704;DHT22;3894;49.700;10.770;2024-03-29T12:25:45;10.30;99.90
7704;DHT22;3894;49.700;10.770;2024-03-29T12:28:12;10.40;99.90
7704;DHT22;3894;49.700;10.770;2024-03-29T12:30:44;10.60;99.90
7704;DHT22;3894;49.700;10.770;2024-03-29T12:33:18;10.70;99.90
7704;DHT22;3894;49.700;10.770;2024-03-29T12:35:55;11.00;99.90
7704;DHT22;3894;49.700;10.770;2024-03-29T12:38:22;11.10;99.90
7704;DHT22;3894;49.700;10.770;2024-03-29T12:40:49;11.20;99.90
7704;DHT22;3894;49.700;10.770;2024-03-29T12:43:19;11.20;99.90
7704;DHT22;3894;49.700;10.770;2024-03-29T12:45:46;11.10;99.90
7704;DHT22;3894;49.700;10.770;2024-03-29T12:48:14;11.10;99.90
7704;DHT22;3894;49.700;10.770;2024-03-29T12:50:44;11.10;99.90
7704;DHT22;3894;49.700;10.770;2024-03-29T12:53:12;11.20;99.90
7704;DHT22;3894;49.700;10.770;2024-03-29T12:55:40;11.20;99.90
7704;DHT22;3894;49.700;10.770;2024-03-29T12:58:07;11.20;99.90
7704;DHT22;3894;49.700;10.770;2024-03-29T13:00:35;11.20;99.90
7704;DHT22;3894;49.700;10.770;2024-03-29T13:03:01;11.20;99.90
7704;DHT22;3894;49.700;10.770;2024-03-29T13:05:27;11.20;99.90
7704;DHT22;3894;49.700;10.770;2024-03-29T13:07:54;11.20;99.90
7704;DHT22;3894;49.700;10.770;2024-03-29T13:10:21;11.30;99.90
7704;DHT22;3894;49.700;10.770;2024-03-29T13:12:47;11.40;99.90
7704;DHT22;3894;49.700;10.770;2024-03-29T13:15:20;11.40;99.90
7704;DHT22;3894;49.700;10.770;2024-03-29T13:17:48;11.40;99.90
7704;DHT22;3894;49.700;10.770;2024-03-29T13:20:15;11.40;99.90
7704;DHT22;3894;49.700;10.770;2024-03-29T13:22:42;11.30;99.90
7704;DHT22;3894;49.700;10.770;2024-03-29T13:25:10;11.30;99.90
7704;DHT22;3894;49.700;10.770;2024-03-29T13:27:39;11.30;99.90
7704;DHT22;3894;49.700;10.770;2024-03-29T13:30:10;11.30;99.90
7704;DHT22;3894;49.700;10.770;2024-03-29T13:32:36;11.40;99.90
7704;DHT22;3894;49.700;10.770;2024-03-29T13:35:02;11.40;99.90
7704;DHT22;3894;49.700;10.770;2024-03-29T13:37:34;11.50;99.90
7704;DHT22;3894;49.700;10.770;2024-03-29T13:39:59;11.60;99.90
7704;DHT22;3894;49.700;10.770;2024-03-29T13:42:25;11.60;99.90
7704;DHT22;3894;49.700;10.770;2024-03-29T13:44:51;11.70;99.90
7704;DHT22;3894;49.700;10.770;2024-03-29T13:47:18;11.70;99.90
7704;DHT22;3894;49.700;10.770;2024-03-29T13:49:44;11.80;99.90
7704;DHT22;3894;49.700;10.770;2024-03-29T13:52:10;11.80;99.90
7704;DHT22;3894;49.700;10.770;2024-03-29T13:54:35;11.90;99.90
7704;DHT22;3894;49.700;10.770;2024-03-29T13:57:02;12.00;99.90
7704;DHT22;3894;49.700;10.770;2024-03-29T13:59:29;12.10;99.90
7704;DHT22;3894;49.700;10.770;2024-03-29T14:01:55;12.10;99.90
7704;DHT22;3894;49.700;10.770;2024-03-29T14:04:20;12.20;99.90
7704;DHT22;3894;49.700;10.770;2024-03-29T14:06:46;12.30;99.90
7704;DHT22;3894;49.700;10.770;2024-03-29T14:09:11;12.30;99.90
7704;DHT22;3894;49.700;10.770;2024-03-29T14:11:37;12.30;99.90
7704;DHT22;3894;49.700;10.770;2024-03-29T14:14:03;12.40;99.90
7704;DHT22;3894;49.700;10.770;2024-03-29T14:16:30;12.40;99.90
7704;DHT22;3894;49.700;10.770;2024-03-29T14:18:56;12.50;99.90
7704;DHT22;3894;49.700;10.770;2024-03-29T14:21:21;12.40;99.90
7704;DHT22;3894;49.700;10.770;2024-03-29T14:23:47;12.50;99.90
7704;DHT22;3894;49.700;10.770;2024-03-29T14:26:12;12.50;99.90
7704;DHT22;3894;49.700;10.770;2024-03-29T14:28:38;12.50;99.90
7704;DHT22;3894;49.700;10.770;2024-03-29T14:31:03;12.50;99.90
7704;DHT22;3894;49.700;10.770;2024-03-29T14:33:29;12.50;99.90
7704;DHT22;3894;49.700;10.770;2024-03-29T14:35:54;12.50;99.90
7704;DHT22;3894;49.700;10.770;2024-03-29T14:38:22;12.40;99.90
7704;DHT22;3894;49.700;10.770;2024-03-29T14:40:48;12.30;99.90
7704;DHT22;3894;49.700;10.770;2024-03-29T14:43:13;12.30;99.90
7704;DHT22;3894;49.700;10.770;2024-03-29T14:45:40;12.20;99.90
7704;DHT22;3894;49.700;10.770;2024-03-29T14:48:06;12.20;99.90
7704;DHT22;3894;49.700;10.770;2024-03-29T14:50:32;12.30;99.90
7704;DHT22;3894;49.700;10.770;2024-03-29T14:52:57;12.40;99.90
7704;DHT22;3894;49.700;10.770;2024-03-29T14:55:23;12.60;99.90
7704;DHT22;3894;49.700;10.770;2024-03-29T14:57:48;12.60;99.90
7704;DHT22;3894;49.700;10.770;2024-03-29T15:00:15;12.70;99.90
7704;DHT22;3894;49.700;10.770;2024-03-29T15:02:41;12.70;99.90
7704;DHT22;3894;49.700;10.770;2024-03-29T15:05:08;12.70;99.90
7704;DHT22;3894;49.700;10.770;2024-03-29T15:07:37;12.70;99.90
7704;DHT22;3894;49.700;10.770;2024-03-29T15:10:02;12.80;99.90
7704;DHT22;3894;49.700;10.770;2024-03-29T15:12:30;12.80;99.90
7704;DHT22;3894;49.700;10.770;2024-03-29T15:14:56;12.80;99.90
7704;DHT22;3894;49.700;10.770;2024-03-29T15:17:21;12.80;99.90
7704;DHT22;3894;49.700;10.770;2024-03-29T15:19:47;12.80;99.90
7704;DHT22;3894;49.700;10.770;2024-03-29T15:22:16;12.80;99.90
7704;DHT22;3894;49.700;10.770;2024-03-29T15:24:41;12.80;99.90
7704;DHT22;3894;49.700;10.770;2024-03-29T15:27:07;12.80;99.90
7704;DHT22;3894;49.700;10.770;2024-03-29T15:29:41;12.80;99.90
7704;DHT22;3894;49.700;10.770;2024-03-29T15:32:07;12.90;99.90
7704;DHT22;3894;49.700;10.770;2024-03-29T15:34:34;12.90;99.90
7704;DHT22;3894;49.700;10.770;2024-03-29T15:36:59;12.80;99.90
7704;DHT22;3894;49.700;10.770;2024-03-29T15:39:25;12.90;99.90
7704;DHT22;3894;49.700;10.770;2024-03-29T15:41:50;12.90;99.90
7704;DHT22;3894;49.700;10.770;2024-03-29T15:44:16;12.80;99.90
7704;DHT22;3894;49.700;10.770;2024-03-29T15:46:42;12.90;99.90
7704;DHT22;3894;49.700;10.770;2024-03-29T15:49:09;12.90;99.90
7704;DHT22;3894;49.700;10.770;2024-03-29T15:51:35;13.00;99.90
7704;DHT22;3894;49.700;10.770;2024-03-29T15:54:00;13.00;99.90